Kostroma, Russia
Current Conditions -  °F | °C
As of 5:00 PM on Saturday 25 Oct 2014 (Local Time) from UUDL Reporting Station
Clear Clear  
Wind Chill: 16°   Ceiling: Unl
Heat Index: 16°   Visibility: 6mi
Dew Point: 10°   Wind: 0mph
Humidity: 79%   Direction: NA
Pressure: 30.62"   Gusts: NA
Location:  57.77°N, 40.93°E
Report Text: UUDL 251400Z 00000MPS CAVOK M09/M12 Q1037 NOSIG RMK QFE76923490250
Loading
Personal Weather Stations






























Interactive Weather Map
Tropical Storm Tracking
New forecast layout! Learn more

10-Day Weather Forecast

Advertisements
Track Severe Weather on mobile